Time;durP1;ratioP1;P1;durP2;ratioP2;P2;SDS_P1;SDS_P2;PMS_P1;PMS_P2;Temp;Humidity;BMP_temperature;BMP_pressure;BME280_temperature;BME280_humidity;BME280_pressure;Samples;Min_cycle;Max_cycle;Signal;HPM_P1;HPM_P2
2024/01/24 06:00:40;;;;;;;2.27;1.57;;;;;;;;;;5823911;23;20530;-77
2024/01/24 06:03:07;;;;;;;3.13;1.67;;;;;;;;;;4975849;29;20417;-77
2024/01/24 06:05:33;;;;;;;4.30;1.93;;;;;;;;;;4977709;28;20412;-76
2024/01/24 06:07:59;;;;;;;4.43;1.87;;;;;;;;;;4975148;29;20404;-77
2024/01/24 06:10:25;;;;;;;3.43;2.27;;;;;;;;;;4974992;28;20429;-77
2024/01/24 06:12:51;;;;;;;3.53;1.53;;;;;;;;;;4977462;29;20760;-77
2024/01/24 06:15:18;;;;;;;4.57;1.87;;;;;;;;;;4974392;29;20420;-76
2024/01/24 06:17:44;;;;;;;2.73;1.63;;;;;;;;;;4972188;29;20429;-77
2024/01/24 06:20:11;;;;;;;4.10;1.20;;;;;;;;;;4970148;28;20436;-77
2024/01/24 06:22:37;;;;;;;3.30;1.40;;;;;;;;;;4975463;28;20417;-77
2024/01/24 06:25:07;;;;;;;1.53;1.33;;;;;;;;;;4975138;29;20461;-77
2024/01/24 06:27:33;;;;;;;4.70;1.80;;;;;;;;;;4977466;29;20461;-77
2024/01/24 06:29:59;;;;;;;5.40;1.30;;;;;;;;;;4975078;29;20468;-77
2024/01/24 06:32:25;;;;;;;3.00;1.63;;;;;;;;;;4975188;28;20454;-76
2024/01/24 06:34:51;;;;;;;6.70;1.90;;;;;;;;;;4976587;29;20397;-77
2024/01/24 06:37:17;;;;;;;1.43;1.20;;;;;;;;;;4975342;29;20904;-77
2024/01/24 06:39:43;;;;;;;6.10;1.40;;;;;;;;;;4976317;29;20408;-77
2024/01/24 06:42:10;;;;;;;1.40;1.33;;;;;;;;;;4976221;28;20444;-77
2024/01/24 06:44:36;;;;;;;4.17;1.33;;;;;;;;;;4975773;29;20460;-77
2024/01/24 06:47:02;;;;;;;3.10;1.70;;;;;;;;;;4975038;29;20428;-77
2024/01/24 06:49:28;;;;;;;3.70;1.30;;;;;;;;;;4976922;29;20519;-77
2024/01/24 06:51:55;;;;;;;4.47;1.37;;;;;;;;;;4976977;28;20440;-76
2024/01/24 06:54:21;;;;;;;4.40;1.40;;;;;;;;;;4977877;28;20428;-77
2024/01/24 06:56:47;;;;;;;1.90;1.33;;;;;;;;;;4976376;29;20424;-77
2024/01/24 06:59:13;;;;;;;2.73;1.40;;;;;;;;;;4978027;28;20411;-77
2024/01/24 07:01:40;;;;;;;1.90;1.30;;;;;;;;;;4977944;28;20449;-76
2024/01/24 07:04:06;;;;;;;4.30;1.90;;;;;;;;;;4978432;29;20417;-77
2024/01/24 07:06:32;;;;;;;3.60;1.50;;;;;;;;;;4977597;29;20489;-77
2024/01/24 07:08:57;;;;;;;2.45;1.40;;;;;;;;;;4968470;29;20460;-74
2024/01/24 07:11:23;;;;;;;4.93;1.50;;;;;;;;;;4956148;28;20204;-74
2024/01/24 07:13:49;;;;;;;3.40;1.33;;;;;;;;;;4960003;29;20448;-74
2024/01/24 07:16:16;;;;;;;3.40;1.60;;;;;;;;;;4957763;29;20928;-76
2024/01/24 07:18:42;;;;;;;8.03;1.77;;;;;;;;;;4962769;28;20427;-75
2024/01/24 07:21:08;;;;;;;5.90;2.87;;;;;;;;;;4964372;28;20500;-75
2024/01/24 07:23:34;;;;;;;3.83;1.30;;;;;;;;;;4971839;29;20417;-74
2024/01/24 07:26:00;;;;;;;4.30;1.67;;;;;;;;;;4966711;29;20442;-74
2024/01/24 07:28:29;;;;;;;1.37;1.30;;;;;;;;;;4964739;29;20492;-75
2024/01/24 07:30:55;;;;;;;2.50;1.60;;;;;;;;;;4964868;28;20524;-74
2024/01/24 07:33:21;;;;;;;4.47;1.97;;;;;;;;;;4965792;29;20436;-74
2024/01/24 07:35:46;;;;;;;3.70;1.93;;;;;;;;;;4964467;29;20428;-75
2024/01/24 07:38:12;;;;;;;3.23;1.37;;;;;;;;;;4969595;29;20459;-75
2024/01/24 07:40:38;;;;;;;3.60;1.40;;;;;;;;;;4970039;29;20437;-75
2024/01/24 07:43:04;;;;;;;2.60;1.30;;;;;;;;;;4969545;29;20413;-75
2024/01/24 07:45:30;;;;;;;2.23;1.50;;;;;;;;;;4961658;29;20976;-75
2024/01/24 07:47:56;;;;;;;3.87;2.10;;;;;;;;;;4969494;29;20967;-74
2024/01/24 07:50:22;;;;;;;4.00;1.50;;;;;;;;;;4972003;29;20452;-76
2024/01/24 07:52:48;;;;;;;3.03;1.80;;;;;;;;;;4971902;29;20423;-75
2024/01/24 07:55:15;;;;;;;8.10;1.20;;;;;;;;;;4968203;29;20496;-74
2024/01/24 07:57:41;;;;;;;1.80;1.07;;;;;;;;;;4966774;28;20412;-74
2024/01/24 08:00:07;;;;;;;8.50;1.50;;;;;;;;;;4966255;29;20758;-73
2024/01/24 08:02:33;;;;;;;2.10;1.40;;;;;;;;;;4964873;29;20443;-74
2024/01/24 08:04:59;;;;;;;2.50;1.50;;;;;;;;;;4969447;29;20425;-74
2024/01/24 08:07:25;;;;;;;6.40;1.40;;;;;;;;;;4970152;29;20441;-74
2024/01/24 08:09:51;;;;;;;3.97;1.10;;;;;;;;;;4969968;29;20479;-74
2024/01/24 08:12:18;;;;;;;2.90;1.40;;;;;;;;;;4970160;29;20492;-74
2024/01/24 08:14:44;;;;;;;3.90;1.37;;;;;;;;;;4969942;28;20552;-75
2024/01/24 08:17:10;;;;;;;2.03;1.00;;;;;;;;;;4972883;29;20429;-76
2024/01/24 08:19:38;;;;;;;1.70;1.03;;;;;;;;;;4973208;28;20460;-75
2024/01/24 08:22:04;;;;;;;2.50;1.20;;;;;;;;;;4966663;29;20563;-74
2024/01/24 08:24:30;;;;;;;1.17;1.10;;;;;;;;;;4966187;29;20428;-74
2024/01/24 08:26:56;;;;;;;7.33;1.20;;;;;;;;;;4967343;29;21003;-74
2024/01/24 08:29:25;;;;;;;1.80;1.23;;;;;;;;;;4967881;29;20495;-74
2024/01/24 08:31:51;;;;;;;5.50;0.90;;;;;;;;;;4969342;28;20472;-75
2024/01/24 08:34:17;;;;;;;3.60;1.30;;;;;;;;;;4968732;29;20416;-75
2024/01/24 08:36:44;;;;;;;1.33;0.90;;;;;;;;;;4964803;29;20425;-74
2024/01/24 08:39:10;;;;;;;4.20;1.10;;;;;;;;;;4960679;29;20457;-75
2024/01/24 08:41:36;;;;;;;1.73;1.10;;;;;;;;;;4956770;29;20473;-75
2024/01/24 08:44:02;;;;;;;6.53;0.97;;;;;;;;;;4958082;29;20519;-75
2024/01/24 08:46:28;;;;;;;1.03;0.97;;;;;;;;;;4954628;29;20427;-75
2024/01/24 08:48:54;;;;;;;5.70;1.00;;;;;;;;;;4952941;29;20476;-74
2024/01/24 08:51:22;;;;;;;1.00;0.90;;;;;;;;;;4944645;28;20952;-75
2024/01/24 08:53:48;;;;;;;1.97;1.50;;;;;;;;;;4936612;29;20413;-75
2024/01/24 08:56:14;;;;;;;0.90;0.80;;;;;;;;;;4952468;29;20422;-74
2024/01/24 08:58:40;;;;;;;3.50;1.47;;;;;;;;;;4952426;29;20432;-74
2024/01/24 09:01:06;;;;;;;0.87;0.77;;;;;;;;;;4953417;29;20460;-75
2024/01/24 09:03:32;;;;;;;2.40;0.90;;;;;;;;;;4954980;29;20936;-74
2024/01/24 09:05:58;;;;;;;2.07;1.20;;;;;;;;;;4956198;29;20424;-76
2024/01/24 09:08:25;;;;;;;1.27;1.03;;;;;;;;;;4945152;29;20464;-76
2024/01/24 09:10:52;;;;;;;1.50;0.90;;;;;;;;;;4941250;29;20770;-75
2024/01/24 09:13:21;;;;;;;1.10;1.00;;;;;;;;;;4958712;28;20417;-75
2024/01/24 09:15:47;;;;;;;1.40;1.07;;;;;;;;;;4956006;28;20456;-76
2024/01/24 09:18:13;;;;;;;1.23;0.97;;;;;;;;;;4955973;28;20943;-76
2024/01/24 09:20:39;;;;;;;1.40;0.90;;;;;;;;;;4954401;29;20488;-76
2024/01/24 09:23:05;;;;;;;2.13;1.10;;;;;;;;;;4953942;29;20467;-76
2024/01/24 09:25:31;;;;;;;1.90;0.80;;;;;;;;;;4948720;29;20414;-76
2024/01/24 09:27:57;;;;;;;1.20;0.90;;;;;;;;;;4955027;29;20409;-76
2024/01/24 09:30:23;;;;;;;2.40;0.93;;;;;;;;;;4953522;29;20460;-75
2024/01/24 09:32:49;;;;;;;2.20;1.00;;;;;;;;;;4950115;29;20421;-76
2024/01/24 09:35:15;;;;;;;1.07;0.80;;;;;;;;;;4935266;29;20433;-76
2024/01/24 09:37:41;;;;;;;0.90;0.77;;;;;;;;;;4953129;29;20900;-76
2024/01/24 09:40:08;;;;;;;2.93;0.80;;;;;;;;;;4949269;29;20424;-75
2024/01/24 09:42:39;;;;;;;1.60;0.80;;;;;;;;;;4953187;28;20439;-75
2024/01/24 09:45:08;;;;;;;1.00;0.90;;;;;;;;;;4945676;29;20423;-74
2024/01/24 09:47:34;;;;;;;1.03;1.00;;;;;;;;;;4949834;29;20870;-75
2024/01/24 09:50:04;;;;;;;1.20;0.80;;;;;;;;;;4953142;29;20567;-74
2024/01/24 09:52:32;;;;;;;2.80;0.73;;;;;;;;;;4951555;29;20455;-74
2024/01/24 09:55:00;;;;;;;0.83;0.77;;;;;;;;;;4953679;29;20465;-74
2024/01/24 09:57:27;;;;;;;1.83;1.00;;;;;;;;;;4951869;29;20429;-74
2024/01/24 09:59:53;;;;;;;1.10;0.80;;;;;;;;;;4953499;29;20420;-75
2024/01/24 10:02:20;;;;;;;1.50;1.10;;;;;;;;;;4952825;29;20498;-75
2024/01/24 10:04:46;;;;;;;1.07;0.97;;;;;;;;;;4954017;28;20417;-74
2024/01/24 10:07:12;;;;;;;1.57;0.93;;;;;;;;;;4953000;29;20435;-75
2024/01/24 10:09:38;;;;;;;2.27;1.20;;;;;;;;;;4951767;29;20468;-76
2024/01/24 10:12:05;;;;;;;1.13;1.03;;;;;;;;;;4953718;29;20464;-75
2024/01/24 10:14:32;;;;;;;1.27;1.20;;;;;;;;;;4953567;29;20417;-75
2024/01/24 10:16:58;;;;;;;1.03;0.80;;;;;;;;;;4953253;28;20853;-75
2024/01/24 10:19:25;;;;;;;1.07;1.00;;;;;;;;;;4953044;29;20676;-75
2024/01/24 10:21:51;;;;;;;0.90;0.70;;;;;;;;;;4950322;29;20544;-74
2024/01/24 10:24:17;;;;;;;1.20;1.10;;;;;;;;;;4934030;29;20414;-74
2024/01/24 10:26:46;;;;;;;1.00;0.70;;;;;;;;;;4941892;29;20809;-74
2024/01/24 10:29:12;;;;;;;1.20;0.90;;;;;;;;;;4951376;29;20519;-74
2024/01/24 10:31:38;;;;;;;0.90;0.80;;;;;;;;;;4952272;29;20520;-74
2024/01/24 10:34:05;;;;;;;0.83;0.80;;;;;;;;;;4953365;29;20413;-74
2024/01/24 10:36:32;;;;;;;0.93;0.80;;;;;;;;;;4948553;29;20904;-75
2024/01/24 10:38:59;;;;;;;1.07;0.90;;;;;;;;;;4934023;29;20413;-74
2024/01/24 10:41:29;;;;;;;1.17;0.80;;;;;;;;;;4939007;29;20452;-73
2024/01/24 10:43:57;;;;;;;1.13;0.77;;;;;;;;;;4953179;29;20452;-74
2024/01/24 10:46:23;;;;;;;0.80;0.70;;;;;;;;;;4954835;28;20417;-74
2024/01/24 10:48:50;;;;;;;0.73;0.60;;;;;;;;;;4948139;29;20513;-73
2024/01/24 10:51:18;;;;;;;1.07;0.80;;;;;;;;;;4949983;29;20836;-73
2024/01/24 10:53:45;;;;;;;0.80;0.70;;;;;;;;;;4957161;28;20405;-73
2024/01/24 10:56:14;;;;;;;4.20;0.87;;;;;;;;;;4952776;29;20536;-75
2024/01/24 10:58:41;;;;;;;1.00;0.87;;;;;;;;;;4954997;29;20443;-75
2024/01/24 11:01:07;;;;;;;1.10;1.00;;;;;;;;;;4956016;28;20487;-74
2024/01/24 11:03:33;;;;;;;0.87;0.80;;;;;;;;;;4956941;29;20428;-75
2024/01/24 11:06:01;;;;;;;1.23;0.87;;;;;;;;;;4960206;29;20828;-74
2024/01/24 11:08:32;;;;;;;1.57;0.90;;;;;;;;;;4962873;28;20460;-75
2024/01/24 11:10:59;;;;;;;0.80;0.70;;;;;;;;;;4958690;29;20449;-75
2024/01/24 11:13:25;;;;;;;4.20;0.70;;;;;;;;;;4950750;29;20531;-75
2024/01/24 11:15:55;;;;;;;1.00;0.90;;;;;;;;;;4957420;28;20541;-74
2024/01/24 11:18:31;;;;;;;1.10;0.80;;;;;;;;;;4958391;29;20409;-75
2024/01/24 11:20:58;;;;;;;1.13;0.83;;;;;;;;;;4960686;28;20443;-76
2024/01/24 11:23:46;;;;;;;1.03;0.73;;;;;;;;;;4957959;29;20417;-76
2024/01/24 11:26:13;;;;;;;1.57;0.90;;;;;;;;;;4967510;29;20417;-75
2024/01/24 11:28:39;;;;;;;0.90;0.80;;;;;;;;;;4953672;29;20545;-75
2024/01/24 11:31:07;;;;;;;1.57;1.00;;;;;;;;;;4958927;29;20476;-75
2024/01/24 11:33:33;;;;;;;1.63;1.00;;;;;;;;;;4964206;29;20417;-74
2024/01/24 11:36:01;;;;;;;1.00;0.90;;;;;;;;;;4958448;29;20534;-75
2024/01/24 11:38:27;;;;;;;1.90;0.90;;;;;;;;;;4944089;29;20444;-75
2024/01/24 11:41:03;;;;;;;2.50;1.30;;;;;;;;;;4951839;28;20449;-76
2024/01/24 11:43:33;;;;;;;1.30;1.20;;;;;;;;;;4948405;29;20462;-75
2024/01/24 11:46:02;;;;;;;3.37;1.20;;;;;;;;;;4955312;29;20424;-75
2024/01/24 11:48:28;;;;;;;2.40;1.03;;;;;;;;;;4949804;28;20472;-75
2024/01/24 11:50:55;;;;;;;1.90;1.17;;;;;;;;;;4953973;29;20508;-76
2024/01/24 11:53:21;;;;;;;2.57;1.47;;;;;;;;;;4947245;29;20410;-75
2024/01/24 11:55:52;;;;;;;5.07;1.90;;;;;;;;;;4955200;29;20427;-75
2024/01/24 11:58:17;;;;;;;2.77;1.27;;;;;;;;;;4944807;28;20428;-77
2024/01/24 12:00:44;;;;;;;2.00;1.20;;;;;;;;;;4950197;28;20453;-78
2024/01/24 12:03:12;;;;;;;2.50;1.50;;;;;;;;;;4955385;29;20421;-78
2024/01/24 12:05:39;;;;;;;15.67;1.80;;;;;;;;;;4955353;28;20413;-78
2024/01/24 12:08:07;;;;;;;2.60;0.90;;;;;;;;;;4956408;29;20413;-79
2024/01/24 12:10:33;;;;;;;3.00;1.10;;;;;;;;;;4954637;29;20453;-77
2024/01/24 12:13:00;;;;;;;4.23;1.30;;;;;;;;;;4954422;29;20508;-77
2024/01/24 12:15:27;;;;;;;3.07;1.00;;;;;;;;;;4954331;29;20606;-75
2024/01/24 12:18:01;;;;;;;0.90;0.90;;;;;;;;;;4955414;28;20499;-76
2024/01/24 12:20:27;;;;;;;8.13;1.93;;;;;;;;;;4960397;28;20416;-76
2024/01/24 12:22:53;;;;;;;6.17;1.40;;;;;;;;;;4941017;29;20426;-75
2024/01/24 12:25:19;;;;;;;4.10;1.10;;;;;;;;;;4934657;29;20425;-75
2024/01/24 12:27:45;;;;;;;4.20;1.20;;;;;;;;;;4941885;29;20418;-75
2024/01/24 12:30:11;;;;;;;3.63;1.37;;;;;;;;;;4946441;28;20524;-75
2024/01/24 12:32:37;;;;;;;3.80;1.10;;;;;;;;;;4950360;29;20473;-74
2024/01/24 12:35:05;;;;;;;3.37;1.00;;;;;;;;;;4954071;28;20847;-75
2024/01/24 12:37:32;;;;;;;4.57;1.53;;;;;;;;;;4954900;28;20420;-76
2024/01/24 12:40:07;;;;;;;3.07;1.20;;;;;;;;;;4950920;28;20409;-74
2024/01/24 12:42:33;;;;;;;3.33;1.43;;;;;;;;;;4942519;29;20421;-74
2024/01/24 12:44:59;;;;;;;2.90;1.40;;;;;;;;;;4943835;29;20781;-74
2024/01/24 12:47:25;;;;;;;6.00;1.10;;;;;;;;;;4935702;29;20426;-75
2024/01/24 12:49:51;;;;;;;8.43;1.50;;;;;;;;;;4936300;29;20472;-74
2024/01/24 12:52:17;;;;;;;2.23;1.20;;;;;;;;;;4936525;29;20433;-75
2024/01/24 12:54:43;;;;;;;1.80;1.00;;;;;;;;;;4947781;29;20417;-75
2024/01/24 12:57:09;;;;;;;2.30;1.20;;;;;;;;;;4960717;28;20765;-76
2024/01/24 12:59:35;;;;;;;6.73;2.10;;;;;;;;;;4960176;28;20408;-75
2024/01/24 13:02:02;;;;;;;2.40;1.10;;;;;;;;;;4959355;28;20472;-76
2024/01/24 13:04:28;;;;;;;8.03;1.20;;;;;;;;;;4953720;29;20428;-76
2024/01/24 13:06:54;;;;;;;1.53;1.03;;;;;;;;;;4954637;29;20417;-74
2024/01/24 13:09:21;;;;;;;4.43;1.00;;;;;;;;;;4953828;28;20883;-75
2024/01/24 13:11:46;;;;;;;1.33;1.10;;;;;;;;;;4955565;28;20527;-74
2024/01/24 13:14:12;;;;;;;2.40;1.27;;;;;;;;;;4954589;29;20869;-74
2024/01/24 13:16:38;;;;;;;2.43;1.10;;;;;;;;;;4954279;29;20849;-75
2024/01/24 13:19:04;;;;;;;4.47;1.40;;;;;;;;;;4956765;29;20448;-75
2024/01/24 13:21:30;;;;;;;7.30;1.90;;;;;;;;;;4949008;29;20453;-74
2024/01/24 13:24:01;;;;;;;5.07;1.40;;;;;;;;;;4940817;29;20468;-75
2024/01/24 13:26:27;;;;;;;4.07;1.40;;;;;;;;;;4935161;29;20395;-74
2024/01/24 13:28:53;;;;;;;3.07;1.53;;;;;;;;;;4933570;29;20469;-74
2024/01/24 13:31:19;;;;;;;2.20;1.67;;;;;;;;;;4934756;29;20959;-74
2024/01/24 13:33:47;;;;;;;2.20;1.40;;;;;;;;;;4947898;29;20912;-74
2024/01/24 13:36:16;;;;;;;1.77;1.07;;;;;;;;;;4954275;28;20508;-73
2024/01/24 13:38:42;;;;;;;5.30;1.30;;;;;;;;;;4954379;28;20425;-74
2024/01/24 13:41:08;;;;;;;6.27;1.67;;;;;;;;;;4952770;28;20923;-73
2024/01/24 13:43:33;;;;;;;14.47;1.47;;;;;;;;;;4954387;29;20788;-75
2024/01/24 13:45:59;;;;;;;3.60;1.20;;;;;;;;;;4953814;29;20817;-75
2024/01/24 13:48:25;;;;;;;3.87;1.70;;;;;;;;;;4953867;29;20828;-75
2024/01/24 13:50:51;;;;;;;3.50;1.70;;;;;;;;;;4953988;28;20940;-75
2024/01/24 13:53:17;;;;;;;3.57;1.33;;;;;;;;;;4950873;29;20421;-76
2024/01/24 13:55:43;;;;;;;3.63;1.73;;;;;;;;;;4934500;29;20424;-75
2024/01/24 13:58:09;;;;;;;4.03;1.50;;;;;;;;;;4932815;29;20517;-74
2024/01/24 14:00:35;;;;;;;3.43;1.37;;;;;;;;;;4933961;29;20453;-74
2024/01/24 14:03:01;;;;;;;2.13;1.10;;;;;;;;;;4934813;29;20421;-75
2024/01/24 14:05:27;;;;;;;4.67;1.37;;;;;;;;;;4935419;29;20719;-77
2024/01/24 14:07:53;;;;;;;3.77;1.10;;;;;;;;;;4935830;29;20433;-74
2024/01/24 14:10:19;;;;;;;3.00;1.30;;;;;;;;;;4953589;29;20464;-76
2024/01/24 14:12:45;;;;;;;5.20;2.03;;;;;;;;;;4952850;29;20417;-76
2024/01/24 14:15:11;;;;;;;9.00;2.17;;;;;;;;;;4954981;29;20520;-74
2024/01/24 14:17:37;;;;;;;4.73;1.60;;;;;;;;;;4954643;29;20426;-74
2024/01/24 14:20:04;;;;;;;7.30;1.60;;;;;;;;;;4959543;28;20955;-77
2024/01/24 14:22:30;;;;;;;9.07;1.80;;;;;;;;;;4971651;29;20492;-75
2024/01/24 14:24:56;;;;;;;4.87;1.70;;;;;;;;;;4969641;29;20440;-73
2024/01/24 14:27:25;;;;;;;5.63;1.50;;;;;;;;;;4969285;29;20417;-74
2024/01/24 14:29:51;;;;;;;6.43;1.57;;;;;;;;;;4968589;28;20514;-75
2024/01/24 14:32:19;;;;;;;5.47;1.47;;;;;;;;;;4960262;28;20440;-74
2024/01/24 14:34:45;;;;;;;6.30;1.57;;;;;;;;;;4958219;28;20429;-73
2024/01/24 14:37:11;;;;;;;8.63;2.83;;;;;;;;;;4956072;29;20424;-75
2024/01/24 14:39:39;;;;;;;7.20;1.77;;;;;;;;;;4956182;29;20913;-75
2024/01/24 14:42:07;;;;;;;3.87;1.40;;;;;;;;;;4955362;29;20555;-76
2024/01/24 14:44:33;;;;;;;6.43;1.30;;;;;;;;;;4957321;28;20425;-74
2024/01/24 14:46:59;;;;;;;4.30;1.60;;;;;;;;;;4957337;29;20424;-75
2024/01/24 14:49:25;;;;;;;5.00;1.60;;;;;;;;;;4963353;29;20487;-75
2024/01/24 14:51:52;;;;;;;5.80;1.90;;;;;;;;;;4967824;29;21001;-77
2024/01/24 14:54:18;;;;;;;9.03;1.83;;;;;;;;;;4970350;29;20488;-76
2024/01/24 14:56:44;;;;;;;5.30;2.40;;;;;;;;;;4954645;28;20421;-76
2024/01/24 14:59:10;;;;;;;7.07;1.90;;;;;;;;;;4952404;29;20423;-77
2024/01/24 15:01:36;;;;;;;4.73;1.90;;;;;;;;;;4960609;29;20541;-77
2024/01/24 15:04:02;;;;;;;13.93;2.50;;;;;;;;;;4957721;29;20421;-76
2024/01/24 15:06:28;;;;;;;12.07;2.87;;;;;;;;;;4961584;29;20496;-76
2024/01/24 15:08:54;;;;;;;5.83;1.50;;;;;;;;;;4967334;28;20463;-75
2024/01/24 15:11:20;;;;;;;11.37;1.77;;;;;;;;;;4969411;29;20867;-76
2024/01/24 15:13:46;;;;;;;5.00;1.80;;;;;;;;;;4959493;29;20428;-74
2024/01/24 15:16:12;;;;;;;6.10;1.90;;;;;;;;;;4941008;29;20429;-75
2024/01/24 15:18:41;;;;;;;5.87;1.73;;;;;;;;;;4947118;29;20425;-76
2024/01/24 15:21:07;;;;;;;3.77;1.37;;;;;;;;;;4955206;29;20440;-77
2024/01/24 15:23:32;;;;;;;9.90;1.70;;;;;;;;;;4957176;29;20423;-76
2024/01/24 15:25:58;;;;;;;5.77;2.10;;;;;;;;;;4952599;29;20872;-75
2024/01/24 15:28:24;;;;;;;9.37;2.07;;;;;;;;;;4957065;28;20409;-75
2024/01/24 15:30:50;;;;;;;11.13;2.30;;;;;;;;;;4954930;28;20447;-75
2024/01/24 15:33:16;;;;;;;3.50;2.10;;;;;;;;;;4947777;28;20464;-76
2024/01/24 15:35:44;;;;;;;6.80;1.80;;;;;;;;;;4951978;29;20435;-75
2024/01/24 15:38:10;;;;;;;10.03;2.63;;;;;;;;;;4943089;28;20846;-77
2024/01/24 15:40:36;;;;;;;9.37;3.07;;;;;;;;;;4950985;28;20480;-75
2024/01/24 15:43:02;;;;;;;9.60;1.80;;;;;;;;;;4953096;29;20424;-76
2024/01/24 15:45:28;;;;;;;7.73;2.30;;;;;;;;;;4947686;29;20549;-76
2024/01/24 15:47:54;;;;;;;11.87;2.20;;;;;;;;;;4949914;29;20448;-77
2024/01/24 15:50:20;;;;;;;9.43;2.10;;;;;;;;;;4937505;29;20469;-76
2024/01/24 15:52:46;;;;;;;8.23;2.40;;;;;;;;;;4936489;29;20528;-76
2024/01/24 15:55:12;;;;;;;9.60;2.50;;;;;;;;;;4935310;29;20441;-75
2024/01/24 15:57:38;;;;;;;8.63;2.07;;;;;;;;;;4948059;29;20500;-74
2024/01/24 16:00:05;;;;;;;13.50;2.57;;;;;;;;;;4955262;29;20417;-74
2024/01/24 16:02:34;;;;;;;8.73;2.60;;;;;;;;;;4954819;28;20467;-75
2024/01/24 16:05:00;;;;;;;8.30;2.53;;;;;;;;;;4953681;29;20413;-75
2024/01/24 16:07:26;;;;;;;5.20;2.60;;;;;;;;;;4955143;29;20421;-75
2024/01/24 16:09:53;;;;;;;13.63;2.00;;;;;;;;;;4947282;29;20975;-75
2024/01/24 16:12:19;;;;;;;6.70;2.33;;;;;;;;;;4954133;29;20436;-76
2024/01/24 16:14:45;;;;;;;11.53;2.37;;;;;;;;;;4954894;28;20485;-76
2024/01/24 16:17:11;;;;;;;7.67;2.57;;;;;;;;;;4955142;29;20424;-76
2024/01/24 16:19:37;;;;;;;15.50;3.20;;;;;;;;;;4955742;29;20457;-76
2024/01/24 16:22:03;;;;;;;13.37;2.90;;;;;;;;;;4955314;29;20471;-76
2024/01/24 16:24:30;;;;;;;6.03;2.70;;;;;;;;;;4955220;29;20424;-76
2024/01/24 16:26:56;;;;;;;6.93;2.83;;;;;;;;;;4955335;28;20881;-77
2024/01/24 16:29:22;;;;;;;9.73;3.13;;;;;;;;;;4956462;29;20551;-76
2024/01/24 16:31:48;;;;;;;10.47;2.40;;;;;;;;;;4959026;29;20444;-76
2024/01/24 16:34:14;;;;;;;8.60;2.70;;;;;;;;;;4955870;28;20494;-77
2024/01/24 16:36:40;;;;;;;19.90;3.73;;;;;;;;;;4955193;29;20442;-77
2024/01/24 16:39:07;;;;;;;9.80;2.00;;;;;;;;;;4955435;29;20452;-76
2024/01/24 16:41:33;;;;;;;9.57;2.60;;;;;;;;;;4954850;28;20435;-69
2024/01/24 16:43:58;;;;;;;8.80;2.60;;;;;;;;;;4952242;28;20417;-70
2024/01/24 16:46:25;;;;;;;15.07;3.30;;;;;;;;;;4952673;28;20515;-69
2024/01/24 16:48:54;;;;;;;6.50;2.23;;;;;;;;;;4954086;28;20456;-70
2024/01/24 16:51:20;;;;;;;8.70;2.90;;;;;;;;;;4954162;28;20424;-70
2024/01/24 16:53:46;;;;;;;7.53;2.77;;;;;;;;;;4953942;28;20407;-69
2024/01/24 16:56:12;;;;;;;12.67;3.40;;;;;;;;;;4951209;28;20425;-76
2024/01/24 16:58:40;;;;;;;4.83;3.07;;;;;;;;;;4950885;29;20421;-77
2024/01/24 17:01:06;;;;;;;11.07;3.17;;;;;;;;;;4951460;28;20457;-77
2024/01/24 17:03:32;;;;;;;13.90;2.50;;;;;;;;;;4935755;29;20429;-77
2024/01/24 17:05:58;;;;;;;11.60;2.80;;;;;;;;;;4935606;29;20413;-77
2024/01/24 17:08:24;;;;;;;7.03;2.50;;;;;;;;;;4934599;29;20789;-78
2024/01/24 17:10:50;;;;;;;10.83;2.83;;;;;;;;;;4945640;29;20444;-78
2024/01/24 17:13:19;;;;;;;8.27;2.77;;;;;;;;;;4973686;28;20437;-78
2024/01/24 17:15:45;;;;;;;14.30;2.83;;;;;;;;;;4955429;28;20896;-78
2024/01/24 17:18:11;;;;;;;12.23;2.70;;;;;;;;;;4953662;29;20424;-77
2024/01/24 17:20:37;;;;;;;14.10;3.33;;;;;;;;;;4956118;28;20433;-78
2024/01/24 17:23:03;;;;;;;15.10;3.60;;;;;;;;;;4955784;28;20507;-78
2024/01/24 17:25:29;;;;;;;12.80;2.80;;;;;;;;;;4954402;28;20417;-78
2024/01/24 17:27:55;;;;;;;15.67;3.83;;;;;;;;;;4955001;28;20472;-78
2024/01/24 17:30:21;;;;;;;9.23;2.30;;;;;;;;;;4955381;28;20878;-77
2024/01/24 17:32:47;;;;;;;13.50;3.63;;;;;;;;;;4953971;29;20436;-77
2024/01/24 17:35:13;;;;;;;11.90;2.70;;;;;;;;;;4954777;28;20904;-78
2024/01/24 17:37:39;;;;;;;8.60;2.50;;;;;;;;;;4959251;29;20423;-78
2024/01/24 17:40:07;;;;;;;15.57;3.20;;;;;;;;;;4953971;29;20416;-77
2024/01/24 17:42:33;;;;;;;14.17;2.73;;;;;;;;;;4954372;28;20452;-78
2024/01/24 17:44:59;;;;;;;18.33;3.33;;;;;;;;;;4955995;28;20417;-77
2024/01/24 17:47:25;;;;;;;11.00;2.80;;;;;;;;;;4955102;28;20432;-77
2024/01/24 17:49:50;;;;;;;15.20;3.10;;;;;;;;;;4953647;29;20475;-77
2024/01/24 17:52:16;;;;;;;13.73;3.73;;;;;;;;;;4956747;28;20845;-77
2024/01/24 17:54:42;;;;;;;10.70;3.40;;;;;;;;;;4956143;28;20416;-78
2024/01/24 17:57:08;;;;;;;14.47;4.00;;;;;;;;;;4958364;28;20416;-78
2024/01/24 17:59:34;;;;;;;9.70;2.50;;;;;;;;;;4959638;29;20515;-78
2024/01/24 18:02:00;;;;;;;8.03;2.50;;;;;;;;;;4959260;29;20474;-78
2024/01/24 18:04:26;;;;;;;25.53;3.77;;;;;;;;;;4958147;29;20417;-78
2024/01/24 18:06:52;;;;;;;11.00;3.27;;;;;;;;;;4959222;28;20764;-78
2024/01/24 18:09:18;;;;;;;14.93;3.43;;;;;;;;;;4957643;29;20535;-77
2024/01/24 18:11:44;;;;;;;16.57;3.93;;;;;;;;;;4958592;28;20928;-78
2024/01/24 18:14:10;;;;;;;14.70;3.17;;;;;;;;;;4958183;29;20776;-78
2024/01/24 18:16:36;;;;;;;14.03;3.00;;;;;;;;;;4951197;29;20418;-78
2024/01/24 18:19:02;;;;;;;15.43;3.70;;;;;;;;;;4940015;29;20920;-78
2024/01/24 18:21:29;;;;;;;16.43;3.40;;;;;;;;;;4940438;29;20437;-78
2024/01/24 18:23:55;;;;;;;13.10;3.80;;;;;;;;;;4939367;29;20418;-78
2024/01/24 18:26:21;;;;;;;23.80;3.73;;;;;;;;;;4940033;29;20480;-77
2024/01/24 18:28:48;;;;;;;18.40;4.23;;;;;;;;;;4940454;29;20484;-77
2024/01/24 18:31:14;;;;;;;18.10;3.90;;;;;;;;;;4942233;29;20441;-78
2024/01/24 18:33:40;;;;;;;24.70;4.40;;;;;;;;;;4947950;29;20413;-78
2024/01/24 18:36:09;;;;;;;13.40;3.50;;;;;;;;;;4943145;29;20421;-78
2024/01/24 18:38:35;;;;;;;12.30;4.47;;;;;;;;;;4942033;29;20496;-78
2024/01/24 18:41:01;;;;;;;11.23;3.40;;;;;;;;;;4938541;28;20442;-77
2024/01/24 18:43:27;;;;;;;14.83;3.77;;;;;;;;;;4937203;29;20985;-78
2024/01/24 18:45:53;;;;;;;13.10;3.27;;;;;;;;;;4942013;29;20897;-78
2024/01/24 18:48:19;;;;;;;22.07;4.00;;;;;;;;;;4948343;29;20417;-78
2024/01/24 18:50:46;;;;;;;20.63;5.00;;;;;;;;;;4972572;28;20511;-78
2024/01/24 18:53:12;;;;;;;16.53;4.90;;;;;;;;;;4961953;28;20909;-78
2024/01/24 18:55:38;;;;;;;10.37;3.20;;;;;;;;;;4957242;29;20432;-78
2024/01/24 18:58:04;;;;;;;14.40;4.43;;;;;;;;;;4958425;28;20420;-77
2024/01/24 19:00:30;;;;;;;18.60;4.30;;;;;;;;;;4958112;28;20460;-77
2024/01/24 19:02:56;;;;;;;15.43;3.80;;;;;;;;;;4957692;28;20491;-77
2024/01/24 19:05:22;;;;;;;16.70;3.77;;;;;;;;;;4957311;28;20496;-77
2024/01/24 19:07:49;;;;;;;19.33;4.30;;;;;;;;;;4957039;28;20412;-77
2024/01/24 19:10:15;;;;;;;9.80;3.13;;;;;;;;;;4955631;29;20503;-77
2024/01/24 19:12:41;;;;;;;21.50;3.80;;;;;;;;;;4957440;28;20465;-77
2024/01/24 19:15:07;;;;;;;20.50;3.80;;;;;;;;;;4955689;29;20448;-77
2024/01/24 19:17:33;;;;;;;17.13;3.80;;;;;;;;;;4956940;28;20412;-77
2024/01/24 19:19:59;;;;;;;15.47;3.73;;;;;;;;;;4947774;28;20429;-77
2024/01/24 19:22:25;;;;;;;21.20;5.43;;;;;;;;;;4946548;29;20433;-77
2024/01/24 19:24:51;;;;;;;18.73;4.13;;;;;;;;;;4956075;29;20439;-77
2024/01/24 19:27:17;;;;;;;17.10;4.00;;;;;;;;;;4955411;29;20448;-77
2024/01/24 19:29:43;;;;;;;14.33;4.00;;;;;;;;;;4956300;29;20575;-77
2024/01/24 19:32:09;;;;;;;15.10;4.13;;;;;;;;;;4956132;28;20432;-77
2024/01/24 19:34:35;;;;;;;25.17;4.67;;;;;;;;;;4956401;29;20416;-77
2024/01/24 19:37:01;;;;;;;20.10;5.20;;;;;;;;;;4955971;28;20413;-77
2024/01/24 19:39:27;;;;;;;24.23;4.43;;;;;;;;;;4955422;29;20412;-77
2024/01/24 19:41:53;;;;;;;26.00;5.50;;;;;;;;;;4937028;29;20449;-77
2024/01/24 19:44:19;;;;;;;17.20;3.87;;;;;;;;;;4935934;29;20952;-77
2024/01/24 19:46:45;;;;;;;14.93;3.87;;;;;;;;;;4937508;29;20406;-78
2024/01/24 19:49:11;;;;;;;12.43;3.80;;;;;;;;;;4936379;29;21005;-77
2024/01/24 19:51:38;;;;;;;18.00;4.50;;;;;;;;;;4936285;29;20446;-77
2024/01/24 19:54:04;;;;;;;30.23;4.83;;;;;;;;;;4935800;29;20578;-77
2024/01/24 19:56:30;;;;;;;25.40;5.67;;;;;;;;;;4936182;29;20972;-77
2024/01/24 19:58:56;;;;;;;17.47;4.23;;;;;;;;;;4935682;29;20432;-77
2024/01/24 20:01:23;;;;;;;18.97;3.83;;;;;;;;;;4935327;29;20465;-77
2024/01/24 20:03:50;;;;;;;13.40;3.43;;;;;;;;;;4935765;29;20426;-77
2024/01/24 20:06:16;;;;;;;10.97;3.30;;;;;;;;;;4941129;29;20428;-78
2024/01/24 20:08:42;;;;;;;23.03;4.53;;;;;;;;;;4956097;29;20421;-77
2024/01/24 20:11:08;;;;;;;20.17;4.53;;;;;;;;;;4955666;29;20467;-78
2024/01/24 20:13:35;;;;;;;20.37;4.20;;;;;;;;;;4955609;29;21134;-78
2024/01/24 20:16:02;;;;;;;23.70;4.77;;;;;;;;;;4954849;29;20449;-78
2024/01/24 20:18:28;;;;;;;14.20;4.30;;;;;;;;;;4953681;28;20890;-78
2024/01/24 20:20:54;;;;;;;14.87;3.83;;;;;;;;;;4953980;29;20507;-78
2024/01/24 20:23:21;;;;;;;16.17;5.60;;;;;;;;;;4936268;29;20505;-77
2024/01/24 20:25:47;;;;;;;21.63;4.37;;;;;;;;;;4936382;29;20410;-77
2024/01/24 20:28:13;;;;;;;18.67;3.87;;;;;;;;;;4950290;29;20437;-77
2024/01/24 20:30:39;;;;;;;18.40;4.40;;;;;;;;;;4940013;29;20476;-77
2024/01/24 20:33:05;;;;;;;19.37;5.27;;;;;;;;;;4936626;29;20414;-77